Manhattan Regional Airport
KMHK : now visible

Airfield :











YOU CAN JOIN US ON...

 
LOGIN :

Register | Disclaimer

   EN    FR    IT 

 









Legend :    VFR   Marginal VFR   IFR   Intensive IFR   Very Intensive IFR
Visi :
Ceiling :
>= 8 km
>= 3000ft
5 to 8 km
1000 to 3000 ft
1500m to 5 km
500 to 1000 ft
800 to 1500m
200 to 500 ft
< 800m
< 200 ft
Symbols :   Thunderstorms  Fog  Heavy snow  Heavy precipitations  Wind > 20 kt






- Airport Elevation : 1057 ft
- IATA code : MHK


KMHK - Manhattan Regional

CURRENT METAR :
  • 282352Z 03005KT 7SM OVC010 01/M02 A3008 RMK AO2 SLP195 T00061022 10011 20000 51010

EXPIRED METARs :
  • 282252Z 01006KT 7SM OVC012 01/M02 A3007 RMK AO2 SLP191 T00061017
  • 282152Z 04008KT 9SM OVC013 01/M02 A3006 RMK AO2 SLP187 T00111017

TAF KMHK
Valid from the 29 at 00:00 until the 30 at 00:00 UTC


282339Z 2900/2924 03006KT 5SM BR VCSH OVC010
FM290800 00000KT 4SM BR OVC008
FM291800 00000KT P6SM OVC012



MET'MAP, your aeronautical weather chart ! - Copyright ORBIFLY December 2007 - Disclaimer

ORBIFLY MET'MAP TEAM :

Programming & Development : Alexandra Zaïnal
Concept & original design : Baudouin d'Aumeries
Assistance for programming : Marc-Olivier Méhu
Technical & hardware support : Manuel Goepfert

Contact : metmap@orbifly.com




SOURCES & CREDITS :

   NOAA       Earth
Advisory